createdAt,value
2022-10-01T00:00:11.102Z,14.38
2022-10-01T00:05:14.697Z,11.77
2022-10-01T00:10:18.831Z,16.83
2022-10-01T00:15:23.241Z,12.38
2022-10-01T00:20:26.681Z,15.67
2022-10-01T00:25:30.425Z,14.80
2022-10-01T00:30:39.594Z,15.98
2022-10-01T00:35:43.446Z,18.38
2022-10-01T00:40:46.716Z,18.55
2022-10-01T00:45:54.471Z,14.00
2022-10-01T00:50:58.822Z,16.05
2022-10-01T00:56:02.181Z,17.48
2022-10-01T01:01:06.925Z,18.67
2022-10-01T01:06:10.813Z,18.67
2022-10-01T01:11:22.696Z,16.63
2022-10-01T01:16:34.034Z,19.50
2022-10-01T01:21:43.241Z,18.80
2022-10-01T01:26:56.081Z,18.42
2022-10-01T01:32:09.431Z,18.15
2022-10-01T01:37:19.322Z,15.27
2022-10-01T01:42:26.902Z,20.88
2022-10-01T01:47:34.326Z,16.35
2022-10-01T01:52:38.454Z,17.85
2022-10-01T01:57:44.078Z,15.27
2022-10-01T02:02:52.526Z,17.42
2022-10-01T02:08:19.356Z,14.40
2022-10-01T02:13:35.101Z,17.70
2022-10-01T02:18:48.244Z,15.30
2022-10-01T02:23:58.148Z,15.75
2022-10-01T02:29:05.199Z,15.73
2022-10-01T02:34:12.866Z,15.77
2022-10-01T02:39:18.769Z,16.50
2022-10-01T02:44:28.746Z,15.40
2022-10-01T02:49:33.666Z,19.63
2022-10-01T02:54:43.193Z,15.05
2022-10-01T02:59:46.420Z,17.23
2022-10-01T03:04:51.204Z,16.27
2022-10-01T03:09:54.637Z,16.83
2022-10-01T03:14:57.879Z,20.40
2022-10-01T03:20:02.389Z,18.55
2022-10-01T03:25:06.279Z,21.87
2022-10-01T03:30:10.219Z,19.10
2022-10-01T03:35:14.900Z,17.05
2022-10-01T03:40:18.239Z,20.37
2022-10-01T03:45:21.290Z,17.63
2022-10-01T03:50:25.722Z,17.77
2022-10-01T03:55:28.820Z,29.38
2022-10-01T04:00:31.887Z,16.08
2022-10-01T04:05:36.480Z,25.77
2022-10-01T04:10:40.290Z,17.93
2022-10-01T04:15:43.919Z,22.33
2022-10-01T04:20:48.657Z,21.75
2022-10-01T04:25:51.817Z,21.83
2022-10-01T04:31:14.895Z,26.83
2022-10-01T04:36:20.237Z,21.88
2022-10-01T04:41:23.423Z,22.73
2022-10-01T04:46:26.841Z,20.85
2022-10-01T04:51:31.592Z,19.67
2022-10-01T04:56:34.757Z,22.95
2022-10-01T05:25:41.421Z,21.15
2022-10-01T05:30:46.112Z,19.77
2022-10-01T05:35:49.543Z,16.45
2022-10-01T05:40:53.014Z,14.95
2022-10-01T05:46:00.393Z,16.08
2022-10-01T05:51:06.652Z,17.70
2022-10-01T05:56:10.616Z,19.20
2022-10-01T06:01:15.257Z,17.40
2022-10-01T06:06:22.520Z,16.57
2022-10-01T06:11:27.098Z,12.98
2022-10-01T06:16:31.848Z,19.00
2022-10-01T06:21:36.167Z,12.93
2022-10-01T06:26:39.560Z,20.13
2022-10-01T06:31:44.203Z,13.07
2022-10-01T06:36:47.384Z,13.60
2022-10-01T06:41:50.453Z,12.23
2022-10-01T06:46:54.870Z,13.15
2022-10-01T06:52:16.419Z,11.85
2022-10-01T06:57:19.462Z,9.85
2022-10-01T07:02:29.004Z,12.48
2022-10-01T07:07:35.358Z,11.68
2022-10-01T07:12:39.250Z,14.40
2022-10-01T07:17:49.584Z,9.93
2022-10-01T07:22:58.175Z,13.88
2022-10-01T07:28:04.624Z,11.07
2022-10-01T07:33:09.920Z,10.77
2022-10-01T07:38:13.199Z,14.45
2022-10-01T07:43:16.238Z,14.85
2022-10-01T07:48:21.037Z,11.77
2022-10-01T07:53:25.314Z,12.77
2022-10-01T07:58:28.944Z,10.90
2022-10-01T08:03:33.523Z,10.32
2022-10-01T08:08:36.610Z,11.02
2022-10-01T08:13:40.634Z,12.20
2022-10-01T08:18:45.481Z,9.55
2022-10-01T08:23:48.949Z,10.80
2022-10-01T08:28:52.189Z,8.90
2022-10-01T08:33:56.751Z,8.55
2022-10-01T08:38:59.854Z,11.70
2022-10-01T08:44:05.771Z,10.93
2022-10-01T08:49:17.578Z,8.73
2022-10-01T08:54:31.060Z,7.95
2022-10-01T08:59:40.445Z,10.50
2022-10-01T09:04:45.030Z,8.70
2022-10-01T09:09:56.231Z,11.52
2022-10-01T09:15:15.585Z,5.28
2022-10-01T09:20:25.917Z,6.90
2022-10-01T09:25:29.251Z,6.53
2022-10-01T09:30:32.837Z,7.22
2022-10-01T09:35:44.253Z,7.80
2022-10-01T09:40:53.477Z,6.22
2022-10-01T09:45:57.814Z,5.40
2022-10-01T09:51:09.031Z,6.57
2022-10-01T09:56:19.082Z,9.70
2022-10-01T10:01:26.769Z,9.40
2022-10-01T10:06:32.427Z,9.10
2022-10-01T10:11:36.221Z,5.97
2022-10-01T10:16:47.298Z,8.43
2022-10-01T10:21:54.808Z,6.10
2022-10-01T10:27:00.140Z,5.35
2022-10-01T10:32:07.189Z,6.05
2022-10-01T10:37:15.865Z,7.25
2022-10-01T10:42:19.870Z,9.10
2022-10-01T10:47:24.670Z,9.65
2022-10-01T10:52:54.256Z,8.05
2022-10-01T11:05:33.788Z,8.68
2022-10-01T11:10:44.707Z,14.77
2022-10-01T11:16:17.866Z,10.00
2022-10-01T11:37:42.555Z,10.25
2022-10-01T11:42:50.043Z,7.15
2022-10-01T11:47:57.725Z,8.20
2022-10-01T11:53:31.011Z,7.72
2022-10-01T11:58:52.010Z,10.20
2022-10-01T12:04:11.653Z,8.10
2022-10-01T12:09:20.163Z,8.75
2022-10-01T12:14:31.393Z,9.05
2022-10-01T12:19:37.235Z,8.73
2022-10-01T12:24:42.704Z,6.55
2022-10-01T12:29:52.644Z,7.55
2022-10-01T12:35:04.297Z,5.95
2022-10-01T12:40:19.856Z,11.77
2022-10-01T12:58:16.690Z,6.82
2022-10-01T13:03:37.426Z,6.43
2022-10-01T13:08:57.710Z,10.80
2022-10-01T13:14:03.532Z,7.53
2022-10-01T13:26:51.912Z,9.23
2022-10-01T13:31:57.351Z,7.80
2022-10-01T13:37:14.270Z,7.93
2022-10-01T13:50:23.980Z,14.40
2022-10-01T13:55:29.665Z,5.22
2022-10-01T14:00:33.915Z,6.13
2022-10-01T14:05:42.296Z,5.97
2022-10-01T14:11:10.100Z,5.57
2022-10-01T14:16:15.245Z,7.30
2022-10-01T14:21:33.513Z,6.43
2022-10-01T14:26:43.722Z,6.50
2022-10-01T14:31:58.501Z,5.65
2022-10-01T14:37:07.198Z,8.15
2022-10-01T14:42:17.073Z,5.60
2022-10-01T14:47:23.145Z,6.53
2022-10-01T14:52:29.816Z,4.70
2022-10-01T14:57:36.367Z,8.40
2022-10-01T15:02:45.806Z,6.65
2022-10-01T15:07:50.578Z,5.63
2022-10-01T15:12:55.770Z,6.00
2022-10-01T15:18:00.399Z,5.38
2022-10-01T15:23:06.429Z,6.80
2022-10-01T15:28:14.516Z,5.60
2022-10-01T15:33:27.563Z,6.97
2022-10-01T15:38:33.319Z,5.68
2022-10-01T15:43:37.807Z,5.97
2022-10-01T15:48:41.291Z,5.97
2022-10-01T15:53:46.035Z,9.40
2022-10-01T15:58:52.314Z,20.33
2022-10-01T16:04:00.662Z,9.82
2022-10-01T16:09:11.871Z,6.53
2022-10-01T16:14:36.771Z,5.82
2022-10-01T16:19:39.994Z,7.05
2022-10-01T16:24:46.605Z,4.63
2022-10-01T16:29:54.839Z,5.38
2022-10-01T16:35:16.211Z,9.13
2022-10-01T16:40:24.277Z,7.93
2022-10-01T16:45:33.541Z,5.72
2022-10-01T16:50:36.541Z,5.20
2022-10-01T16:55:42.594Z,7.72
2022-10-01T17:06:37.190Z,7.18
2022-10-01T17:11:43.701Z,5.90
2022-10-01T17:16:47.668Z,8.23
2022-10-01T17:21:51.224Z,8.68
2022-10-01T17:26:55.762Z,7.60
2022-10-01T17:31:58.979Z,6.33
2022-10-01T17:37:02.129Z,7.50
2022-10-01T17:42:07.041Z,7.60
2022-10-01T17:47:10.684Z,9.88
2022-10-01T17:52:14.114Z,6.95
2022-10-01T17:57:19.270Z,6.68
2022-10-01T18:09:01.940Z,10.50
2022-10-01T18:14:31.108Z,14.38
2022-10-01T18:24:57.450Z,9.63
2022-10-01T18:30:02.864Z,11.38
2022-10-01T18:35:19.127Z,10.43
2022-10-01T18:40:27.359Z,10.90
2022-10-01T18:45:47.438Z,12.48
2022-10-01T18:50:58.738Z,6.25
2022-10-01T18:56:31.896Z,7.25
2022-10-01T19:01:43.180Z,11.57
2022-10-01T19:06:55.291Z,12.45
2022-10-01T19:12:14.108Z,8.85
2022-10-01T19:17:41.170Z,9.65
2022-10-01T19:22:59.550Z,9.20
2022-10-01T19:28:16.588Z,9.18
2022-10-01T19:33:22.498Z,10.05
2022-10-01T19:38:29.789Z,13.77
2022-10-01T19:43:38.684Z,13.35
2022-10-01T19:48:49.067Z,10.32
2022-10-01T19:54:00.139Z,12.20
2022-10-01T19:59:08.240Z,10.73
2022-10-01T20:04:21.249Z,18.05
2022-10-01T20:09:29.049Z,14.18
2022-10-01T20:15:04.173Z,11.35
2022-10-01T20:20:16.993Z,11.57
2022-10-01T20:25:28.114Z,9.82
2022-10-01T20:30:48.806Z,9.50
2022-10-01T20:36:01.548Z,9.13
2022-10-01T20:41:12.004Z,10.13
2022-10-01T20:46:21.503Z,10.00
2022-10-01T20:51:36.041Z,14.02
2022-10-01T20:56:44.265Z,9.47
2022-10-01T21:01:54.560Z,11.80
2022-10-01T21:07:07.930Z,12.00
2022-10-01T21:12:17.042Z,8.77
2022-10-01T21:17:35.963Z,6.95
2022-10-01T21:22:55.379Z,12.60
2022-10-01T21:28:13.168Z,12.05
2022-10-01T21:33:24.231Z,8.13
2022-10-01T21:38:40.174Z,7.88
2022-10-01T21:43:58.431Z,7.30
2022-10-01T21:49:56.703Z,18.42
2022-10-01T21:55:26.943Z,6.13
2022-10-01T22:00:32.423Z,7.45
2022-10-01T22:10:47.046Z,11.88
2022-10-01T22:15:54.285Z,7.95
2022-10-01T22:20:59.216Z,6.93
2022-10-01T22:26:09.900Z,11.40
2022-10-01T22:31:17.477Z,8.10
2022-10-01T22:37:11.804Z,7.93
2022-10-01T22:42:22.359Z,9.43
2022-10-01T22:47:44.176Z,11.30
2022-10-01T22:52:58.523Z,10.68
2022-10-01T22:58:16.648Z,10.63
2022-10-01T23:03:30.783Z,13.60
2022-10-01T23:08:42.670Z,11.52
2022-10-01T23:13:56.694Z,23.17
2022-10-01T23:19:13.181Z,10.23
2022-10-01T23:24:31.770Z,12.35
2022-10-01T23:30:02.446Z,13.30
2022-10-01T23:35:14.072Z,4.80
2022-10-01T23:40:20.687Z,11.85
2022-10-01T23:45:30.472Z,8.43
2022-10-01T23:50:39.876Z,7.38
2022-10-01T23:56:08.054Z,11.52
